Almaty International Airport

Airport
ICAO code: 
UAAA
IATA Code: 
ALA
Summary
ICAO Region: 
APAC
Territory: 
Location: 
Almaty,
Serving: 
Almaty
Elevation: 
2234 ft
Coordinates: 
Aerial View: 
43° 21' 5.69" N, 77° 2' 10.603" E
Airport BS: 
Bird Strike
Metar
Observation
UAAA 050730Z 02002MPS 330V050 4300 BR FU SCT100 BKN200 04/01 Q1017 NOSIG
Station
Almaty
Date/Time
2021-12-05 07:30:00
Wind direction
20°
Lowest cloud amount
scattered clouds
Temperature
4°C
Dew point
1°C
Humidity
80%
QNH
1017 hPa
Weather condition
n/a

Description

International airport serving the city of Almaty.

Climatology

Cold Semi-arid climate (Köppen climate classification BSk). - Hot, sometimes extremely hot summers and cold, sometimes very cold winters. Some snowfall during the winter. Areas featuring cold semi-arid climates are sometimes subject to major temperature swings during a 24 hour period.

Runways

Designator Length Width Surface Rops
5/23 4397 45 ASP Yes/Yes
Airport map: 
Aerial View: 

Accidents and Serious Incidents at or in the vicinity of UAAA

SKYbrary Partners:

Safety knowledge contributed by: